sensor_id;sensor_type;location;lat;lon;timestamp;pressure;altitude;pressure_sealevel;temperature;humidity
63447;BME280;49577;49.872;6.190;2022-08-25T00:01:59;99544.16;;;16.41;60.92
63447;BME280;49577;49.872;6.190;2022-08-25T00:04:26;99545.39;;;16.42;60.84
63447;BME280;49577;49.872;6.190;2022-08-25T00:06:52;99546.61;;;16.41;60.87
63447;BME280;49577;49.872;6.190;2022-08-25T00:09:21;99546.98;;;16.35;60.81
63447;BME280;49577;49.872;6.190;2022-08-25T00:11:47;99547.67;;;16.23;60.91
63447;BME280;49577;49.872;6.190;2022-08-25T00:14:21;99548.39;;;16.18;61.06
63447;BME280;49577;49.872;6.190;2022-08-25T00:16:47;99544.67;;;16.19;61.20
63447;BME280;49577;49.872;6.190;2022-08-25T00:19:17;99548.34;;;16.19;61.10
63447;BME280;49577;49.872;6.190;2022-08-25T00:21:44;99548.84;;;16.22;61.24
63447;BME280;49577;49.872;6.190;2022-08-25T00:24:12;99548.92;;;16.19;61.26
63447;BME280;49577;49.872;6.190;2022-08-25T00:26:41;99547.73;;;16.14;61.31
63447;BME280;49577;49.872;6.190;2022-08-25T00:29:08;99549.70;;;16.10;61.48
63447;BME280;49577;49.872;6.190;2022-08-25T00:31:34;99547.48;;;16.07;61.54
63447;BME280;49577;49.872;6.190;2022-08-25T00:34:00;99548.99;;;16.04;61.71
63447;BME280;49577;49.872;6.190;2022-08-25T00:36:25;99548.38;;;16.01;61.71
63447;BME280;49577;49.872;6.190;2022-08-25T00:38:52;99553.09;;;15.97;61.93
63447;BME280;49577;49.872;6.190;2022-08-25T00:41:21;99557.56;;;15.94;62.06
63447;BME280;49577;49.872;6.190;2022-08-25T00:43:49;99560.88;;;15.88;62.06
63447;BME280;49577;49.872;6.190;2022-08-25T00:46:19;99565.50;;;15.82;62.09
63447;BME280;49577;49.872;6.190;2022-08-25T00:48:49;99561.25;;;15.78;62.27
63447;BME280;49577;49.872;6.190;2022-08-25T00:51:18;99561.14;;;15.79;62.42
63447;BME280;49577;49.872;6.190;2022-08-25T00:53:45;99562.38;;;15.81;62.25
63447;BME280;49577;49.872;6.190;2022-08-25T00:56:11;99558.17;;;15.79;62.30
63447;BME280;49577;49.872;6.190;2022-08-25T00:58:39;99554.23;;;15.71;62.24
63447;BME280;49577;49.872;6.190;2022-08-25T01:01:04;99556.16;;;15.65;62.67
63447;BME280;49577;49.872;6.190;2022-08-25T01:03:30;99558.79;;;15.65;62.73
63447;BME280;49577;49.872;6.190;2022-08-25T01:05:59;99557.73;;;15.63;62.74
63447;BME280;49577;49.872;6.190;2022-08-25T01:08:26;99565.48;;;15.57;63.01
63447;BME280;49577;49.872;6.190;2022-08-25T01:10:53;99565.05;;;15.49;63.09
63447;BME280;49577;49.872;6.190;2022-08-25T01:13:22;99567.13;;;15.50;63.13
63447;BME280;49577;49.872;6.190;2022-08-25T01:15:49;99565.93;;;15.49;63.03
63447;BME280;49577;49.872;6.190;2022-08-25T01:18:17;99565.30;;;15.44;63.00
63447;BME280;49577;49.872;6.190;2022-08-25T01:20:47;99563.91;;;15.38;63.13
63447;BME280;49577;49.872;6.190;2022-08-25T01:23:12;99563.92;;;15.33;63.59
63447;BME280;49577;49.872;6.190;2022-08-25T01:28:06;99567.52;;;15.32;63.60
63447;BME280;49577;49.872;6.190;2022-08-25T01:30:33;99571.23;;;15.24;63.76
63447;BME280;49577;49.872;6.190;2022-08-25T01:33:02;99572.46;;;15.17;64.11
63447;BME280;49577;49.872;6.190;2022-08-25T01:35:27;99580.16;;;15.13;64.18
63447;BME280;49577;49.872;6.190;2022-08-25T01:37:53;99582.84;;;15.11;64.31
63447;BME280;49577;49.872;6.190;2022-08-25T01:40:19;99584.54;;;15.07;64.50
63447;BME280;49577;49.872;6.190;2022-08-25T01:43:05;99588.00;;;15.02;64.50
63447;BME280;49577;49.872;6.190;2022-08-25T01:45:33;99587.86;;;14.97;64.83
63447;BME280;49577;49.872;6.190;2022-08-25T01:47:59;99584.22;;;14.94;64.90
63447;BME280;49577;49.872;6.190;2022-08-25T01:50:24;99581.30;;;14.93;65.11
63447;BME280;49577;49.872;6.190;2022-08-25T01:55:21;99575.20;;;14.88;65.31
63447;BME280;49577;49.872;6.190;2022-08-25T01:57:47;99574.89;;;14.85;65.37
63447;BME280;49577;49.872;6.190;2022-08-25T02:00:13;99576.91;;;14.84;65.45
63447;BME280;49577;49.872;6.190;2022-08-25T02:02:40;99574.54;;;14.81;65.67
63447;BME280;49577;49.872;6.190;2022-08-25T02:05:07;99574.75;;;14.78;65.60
63447;BME280;49577;49.872;6.190;2022-08-25T02:07:33;99576.73;;;14.75;65.68
63447;BME280;49577;49.872;6.190;2022-08-25T02:09:58;99578.23;;;14.74;65.62
63447;BME280;49577;49.872;6.190;2022-08-25T02:12:24;99575.61;;;14.72;65.80
63447;BME280;49577;49.872;6.190;2022-08-25T02:14:49;99571.95;;;14.72;65.77
63447;BME280;49577;49.872;6.190;2022-08-25T02:17:15;99570.02;;;14.72;65.64
63447;BME280;49577;49.872;6.190;2022-08-25T02:19:41;99572.35;;;14.67;65.83
63447;BME280;49577;49.872;6.190;2022-08-25T02:22:07;99573.08;;;14.60;65.87
63447;BME280;49577;49.872;6.190;2022-08-25T02:24:32;99573.77;;;14.53;66.07
63447;BME280;49577;49.872;6.190;2022-08-25T02:26:57;99571.67;;;14.51;66.14
63447;BME280;49577;49.872;6.190;2022-08-25T02:29:23;99569.96;;;14.48;66.29
63447;BME280;49577;49.872;6.190;2022-08-25T02:31:49;99564.73;;;14.43;66.26
63447;BME280;49577;49.872;6.190;2022-08-25T02:34:14;99562.91;;;14.36;66.38
63447;BME280;49577;49.872;6.190;2022-08-25T02:36:40;99558.48;;;14.33;66.61
63447;BME280;49577;49.872;6.190;2022-08-25T02:39:07;99558.15;;;14.28;66.59
63447;BME280;49577;49.872;6.190;2022-08-25T02:41:33;99557.99;;;14.24;66.93
63447;BME280;49577;49.872;6.190;2022-08-25T02:44:01;99555.94;;;14.21;67.17
63447;BME280;49577;49.872;6.190;2022-08-25T02:46:27;99555.42;;;14.18;67.11
63447;BME280;49577;49.872;6.190;2022-08-25T02:48:52;99555.20;;;14.19;67.33
63447;BME280;49577;49.872;6.190;2022-08-25T02:51:22;99553.92;;;14.19;67.47
63447;BME280;49577;49.872;6.190;2022-08-25T02:53:47;99552.88;;;14.19;67.60
63447;BME280;49577;49.872;6.190;2022-08-25T02:56:14;99556.67;;;14.20;67.49
63447;BME280;49577;49.872;6.190;2022-08-25T02:58:40;99561.66;;;14.15;67.46
63447;BME280;49577;49.872;6.190;2022-08-25T03:01:07;99561.21;;;14.11;67.63
63447;BME280;49577;49.872;6.190;2022-08-25T03:03:37;99558.01;;;14.10;67.78
63447;BME280;49577;49.872;6.190;2022-08-25T03:06:03;99550.64;;;14.08;67.90
63447;BME280;49577;49.872;6.190;2022-08-25T03:08:29;99550.31;;;14.07;68.05
63447;BME280;49577;49.872;6.190;2022-08-25T03:10:54;99554.47;;;14.06;67.89
63447;BME280;49577;49.872;6.190;2022-08-25T03:13:19;99557.00;;;14.03;67.99
63447;BME280;49577;49.872;6.190;2022-08-25T03:15:45;99561.82;;;14.00;68.02
63447;BME280;49577;49.872;6.190;2022-08-25T03:18:10;99564.16;;;14.01;68.18
63447;BME280;49577;49.872;6.190;2022-08-25T03:20:36;99563.91;;;14.04;68.20
63447;BME280;49577;49.872;6.190;2022-08-25T03:23:03;99564.59;;;14.04;67.93
63447;BME280;49577;49.872;6.190;2022-08-25T03:25:29;99568.15;;;14.01;67.99
63447;BME280;49577;49.872;6.190;2022-08-25T03:28:13;99566.01;;;14.00;68.11
63447;BME280;49577;49.872;6.190;2022-08-25T03:30:39;99568.14;;;13.97;68.17
63447;BME280;49577;49.872;6.190;2022-08-25T03:33:04;99564.30;;;13.95;68.08
63447;BME280;49577;49.872;6.190;2022-08-25T03:35:30;99561.79;;;13.93;68.10
63447;BME280;49577;49.872;6.190;2022-08-25T03:37:56;99559.66;;;13.88;68.10
63447;BME280;49577;49.872;6.190;2022-08-25T03:40:22;99553.45;;;13.85;68.29
63447;BME280;49577;49.872;6.190;2022-08-25T03:42:48;99553.75;;;13.81;68.25
63447;BME280;49577;49.872;6.190;2022-08-25T03:45:15;99552.95;;;13.75;68.29
63447;BME280;49577;49.872;6.190;2022-08-25T03:47:45;99549.07;;;13.71;68.67
63447;BME280;49577;49.872;6.190;2022-08-25T03:50:11;99548.59;;;13.68;68.81
63447;BME280;49577;49.872;6.190;2022-08-25T03:52:37;99551.52;;;13.67;68.95
63447;BME280;49577;49.872;6.190;2022-08-25T03:55:04;99551.98;;;13.65;69.06
63447;BME280;49577;49.872;6.190;2022-08-25T03:57:30;99551.52;;;13.62;69.01
63447;BME280;49577;49.872;6.190;2022-08-25T03:59:55;99550.36;;;13.57;68.90
63447;BME280;49577;49.872;6.190;2022-08-25T04:02:20;99548.85;;;13.51;69.22
63447;BME280;49577;49.872;6.190;2022-08-25T04:04:46;99547.40;;;13.47;69.34
63447;BME280;49577;49.872;6.190;2022-08-25T04:07:11;99541.46;;;13.45;69.57
63447;BME280;49577;49.872;6.190;2022-08-25T04:09:36;99539.60;;;13.43;69.59
63447;BME280;49577;49.872;6.190;2022-08-25T04:12:02;99539.37;;;13.44;69.88
63447;BME280;49577;49.872;6.190;2022-08-25T04:14:28;99536.60;;;13.46;69.94
63447;BME280;49577;49.872;6.190;2022-08-25T04:16:53;99538.91;;;13.50;69.78
63447;BME280;49577;49.872;6.190;2022-08-25T04:19:19;99535.40;;;13.53;69.74
63447;BME280;49577;49.872;6.190;2022-08-25T04:21:45;99539.04;;;13.55;69.74
63447;BME280;49577;49.872;6.190;2022-08-25T04:24:11;99539.77;;;13.50;69.55
63447;BME280;49577;49.872;6.190;2022-08-25T04:26:40;99537.86;;;13.41;69.65
63447;BME280;49577;49.872;6.190;2022-08-25T04:29:07;99535.83;;;13.37;69.80
63447;BME280;49577;49.872;6.190;2022-08-25T04:31:34;99530.95;;;13.34;69.98
63447;BME280;49577;49.872;6.190;2022-08-25T04:34:03;99523.84;;;13.31;70.09
63447;BME280;49577;49.872;6.190;2022-08-25T04:36:29;99522.73;;;13.27;70.17
63447;BME280;49577;49.872;6.190;2022-08-25T04:38:54;99523.23;;;13.25;70.28
63447;BME280;49577;49.872;6.190;2022-08-25T04:41:22;99525.17;;;13.25;70.57
63447;BME280;49577;49.872;6.190;2022-08-25T04:43:48;99524.56;;;13.26;70.52
63447;BME280;49577;49.872;6.190;2022-08-25T04:46:23;99523.34;;;13.28;70.63
63447;BME280;49577;49.872;6.190;2022-08-25T04:48:51;99520.64;;;13.29;70.61
63447;BME280;49577;49.872;6.190;2022-08-25T04:51:19;99519.21;;;13.27;70.41
63447;BME280;49577;49.872;6.190;2022-08-25T04:53:47;99517.20;;;13.24;70.39
63447;BME280;49577;49.872;6.190;2022-08-25T04:56:15;99518.95;;;13.19;70.49
63447;BME280;49577;49.872;6.190;2022-08-25T04:58:41;99514.05;;;13.14;70.63
63447;BME280;49577;49.872;6.190;2022-08-25T05:01:09;99514.27;;;13.14;70.88
63447;BME280;49577;49.872;6.190;2022-08-25T05:03:35;99515.01;;;13.13;70.77
63447;BME280;49577;49.872;6.190;2022-08-25T05:06:02;99513.95;;;13.11;70.86
63447;BME280;49577;49.872;6.190;2022-08-25T05:08:27;99512.79;;;13.10;71.12
63447;BME280;49577;49.872;6.190;2022-08-25T05:10:53;99506.11;;;13.12;71.06
63447;BME280;49577;49.872;6.190;2022-08-25T05:13:21;99499.85;;;13.16;71.30
63447;BME280;49577;49.872;6.190;2022-08-25T05:15:55;99499.43;;;13.22;71.15
63447;BME280;49577;49.872;6.190;2022-08-25T05:18:22;99499.14;;;13.28;71.03
63447;BME280;49577;49.872;6.190;2022-08-25T05:20:49;99497.38;;;13.35;71.02
63447;BME280;49577;49.872;6.190;2022-08-25T05:23:15;99495.78;;;13.45;70.84
63447;BME280;49577;49.872;6.190;2022-08-25T05:25:40;99492.45;;;13.54;70.63
63447;BME280;49577;49.872;6.190;2022-08-25T05:28:07;99490.60;;;13.69;70.61
63447;BME280;49577;49.872;6.190;2022-08-25T05:30:32;99490.20;;;14.12;70.05
63447;BME280;49577;49.872;6.190;2022-08-25T05:32:58;99496.56;;;14.95;68.95
63447;BME280;49577;49.872;6.190;2022-08-25T05:35:23;99495.27;;;15.73;67.58
63447;BME280;49577;49.872;6.190;2022-08-25T05:37:48;99497.95;;;16.69;65.25
63447;BME280;49577;49.872;6.190;2022-08-25T05:40:14;99497.74;;;17.47;63.43
63447;BME280;49577;49.872;6.190;2022-08-25T05:42:39;99496.69;;;18.31;61.60
63447;BME280;49577;49.872;6.190;2022-08-25T05:45:06;99493.51;;;19.10;59.53
63447;BME280;49577;49.872;6.190;2022-08-25T05:47:32;99484.47;;;19.85;57.56
63447;BME280;49577;49.872;6.190;2022-08-25T05:49:58;99485.04;;;20.49;55.80
63447;BME280;49577;49.872;6.190;2022-08-25T05:52:25;99481.00;;;21.02;54.19
63447;BME280;49577;49.872;6.190;2022-08-25T05:54:51;99479.84;;;21.58;52.37
63447;BME280;49577;49.872;6.190;2022-08-25T05:57:16;99479.40;;;22.10;50.99
63447;BME280;49577;49.872;6.190;2022-08-25T05:59:42;99481.62;;;22.60;49.77
63447;BME280;49577;49.872;6.190;2022-08-25T06:02:07;99482.70;;;23.05;48.80
63447;BME280;49577;49.872;6.190;2022-08-25T06:04:51;99486.56;;;23.66;47.35
63447;BME280;49577;49.872;6.190;2022-08-25T06:07:16;99486.94;;;24.22;46.45
63447;BME280;49577;49.872;6.190;2022-08-25T06:09:41;99487.58;;;24.88;45.28
63447;BME280;49577;49.872;6.190;2022-08-25T06:12:10;99491.52;;;25.52;44.14
63447;BME280;49577;49.872;6.190;2022-08-25T06:14:35;99494.63;;;26.12;42.64
63447;BME280;49577;49.872;6.190;2022-08-25T06:17:01;99491.33;;;26.64;40.82
63447;BME280;49577;49.872;6.190;2022-08-25T06:19:26;99491.55;;;27.08;39.71
63447;BME280;49577;49.872;6.190;2022-08-25T06:21:54;99486.72;;;27.56;38.54
63447;BME280;49577;49.872;6.190;2022-08-25T06:24:20;99481.48;;;27.87;37.47
63447;BME280;49577;49.872;6.190;2022-08-25T06:26:45;99479.86;;;28.01;36.93
63447;BME280;49577;49.872;6.190;2022-08-25T06:29:11;99479.11;;;28.24;36.15
63447;BME280;49577;49.872;6.190;2022-08-25T06:31:38;99482.07;;;28.44;35.50
63447;BME280;49577;49.872;6.190;2022-08-25T06:34:04;99483.85;;;28.62;35.06
63447;BME280;49577;49.872;6.190;2022-08-25T06:36:30;99482.98;;;28.78;34.69
63447;BME280;49577;49.872;6.190;2022-08-25T06:38:56;99475.59;;;29.29;34.09
63447;BME280;49577;49.872;6.190;2022-08-25T06:41:21;99472.38;;;29.72;33.11
63447;BME280;49577;49.872;6.190;2022-08-25T06:43:46;99478.82;;;30.09;32.37
63447;BME280;49577;49.872;6.190;2022-08-25T06:46:15;99479.56;;;30.37;31.90
63447;BME280;49577;49.872;6.190;2022-08-25T06:48:41;99479.67;;;30.64;31.58
63447;BME280;49577;49.872;6.190;2022-08-25T06:51:09;99478.58;;;31.13;31.14
63447;BME280;49577;49.872;6.190;2022-08-25T06:53:35;99477.86;;;31.63;30.36
63447;BME280;49577;49.872;6.190;2022-08-25T06:56:01;99475.35;;;32.06;29.44
63447;BME280;49577;49.872;6.190;2022-08-25T06:58:26;99476.06;;;32.41;29.04
63447;BME280;49577;49.872;6.190;2022-08-25T07:00:52;99476.57;;;32.88;28.28
63447;BME280;49577;49.872;6.190;2022-08-25T07:03:17;99478.56;;;33.23;27.80
63447;BME280;49577;49.872;6.190;2022-08-25T07:05:53;99481.23;;;33.53;27.05
63447;BME280;49577;49.872;6.190;2022-08-25T07:08:19;99482.10;;;33.88;26.52
63447;BME280;49577;49.872;6.190;2022-08-25T07:10:45;99481.35;;;34.27;25.93
63447;BME280;49577;49.872;6.190;2022-08-25T07:13:11;99485.17;;;34.51;25.44
63447;BME280;49577;49.872;6.190;2022-08-25T07:15:40;99486.17;;;34.62;25.11
63447;BME280;49577;49.872;6.190;2022-08-25T07:18:07;99489.05;;;34.84;24.86
63447;BME280;49577;49.872;6.190;2022-08-25T07:20:34;99487.00;;;35.20;24.59
63447;BME280;49577;49.872;6.190;2022-08-25T07:23:00;99482.56;;;35.52;24.13
63447;BME280;49577;49.872;6.190;2022-08-25T07:25:25;99481.95;;;35.94;23.47
63447;BME280;49577;49.872;6.190;2022-08-25T07:27:50;99483.36;;;36.30;22.95
63447;BME280;49577;49.872;6.190;2022-08-25T07:30:16;99481.38;;;36.61;22.62
63447;BME280;49577;49.872;6.190;2022-08-25T07:32:41;99477.08;;;36.90;22.29
63447;BME280;49577;49.872;6.190;2022-08-25T07:35:07;99469.25;;;36.84;21.81
63447;BME280;49577;49.872;6.190;2022-08-25T07:37:51;99466.13;;;36.74;21.66
63447;BME280;49577;49.872;6.190;2022-08-25T07:40:23;99464.80;;;37.03;21.30
63447;BME280;49577;49.872;6.190;2022-08-25T07:42:50;99458.23;;;37.26;21.14
63447;BME280;49577;49.872;6.190;2022-08-25T07:45:17;99454.81;;;37.57;20.59
63447;BME280;49577;49.872;6.190;2022-08-25T07:47:43;99450.65;;;37.78;20.33
63447;BME280;49577;49.872;6.190;2022-08-25T07:50:10;99448.08;;;37.84;20.59
63447;BME280;49577;49.872;6.190;2022-08-25T07:52:36;99446.46;;;38.05;20.24
63447;BME280;49577;49.872;6.190;2022-08-25T07:55:03;99447.65;;;38.30;20.01
63447;BME280;49577;49.872;6.190;2022-08-25T07:57:28;99450.80;;;38.49;19.73
63447;BME280;49577;49.872;6.190;2022-08-25T07:59:54;99448.84;;;38.67;19.37
63447;BME280;49577;49.872;6.190;2022-08-25T08:02:19;99449.13;;;38.74;19.15
63447;BME280;49577;49.872;6.190;2022-08-25T08:04:47;99451.05;;;38.96;19.23
63447;BME280;49577;49.872;6.190;2022-08-25T08:07:15;99449.88;;;39.52;18.68
63447;BME280;49577;49.872;6.190;2022-08-25T08:09:41;99446.09;;;40.10;18.19
63447;BME280;49577;49.872;6.190;2022-08-25T08:12:07;99444.84;;;40.61;18.00
63447;BME280;49577;49.872;6.190;2022-08-25T08:14:33;99441.61;;;41.14;17.27
63447;BME280;49577;49.872;6.190;2022-08-25T08:16:59;99439.48;;;41.53;17.05
63447;BME280;49577;49.872;6.190;2022-08-25T08:19:28;99435.30;;;41.69;16.73
63447;BME280;49577;49.872;6.190;2022-08-25T08:21:54;99431.73;;;41.79;16.72
63447;BME280;49577;49.872;6.190;2022-08-25T08:24:20;99428.41;;;41.80;16.55
63447;BME280;49577;49.872;6.190;2022-08-25T08:26:45;99428.67;;;41.86;16.52
63447;BME280;49577;49.872;6.190;2022-08-25T08:29:10;99430.93;;;41.97;16.54
63447;BME280;49577;49.872;6.190;2022-08-25T08:31:37;99425.97;;;42.18;16.20
63447;BME280;49577;49.872;6.190;2022-08-25T08:34:02;99425.55;;;42.34;15.94
63447;BME280;49577;49.872;6.190;2022-08-25T08:36:28;99426.21;;;42.01;16.15
63447;BME280;49577;49.872;6.190;2022-08-25T08:38:53;99429.63;;;41.63;16.57
63447;BME280;49577;49.872;6.190;2022-08-25T08:55:07;99415.58;;;41.89;16.64
63447;BME280;49577;49.872;6.190;2022-08-25T08:57:42;99411.98;;;41.88;16.61
63447;BME280;49577;49.872;6.190;2022-08-25T09:00:09;99410.37;;;42.06;16.75
63447;BME280;49577;49.872;6.190;2022-08-25T09:02:50;99410.67;;;42.34;16.64
63447;BME280;49577;49.872;6.190;2022-08-25T09:05:19;99411.31;;;42.68;16.52
63447;BME280;49577;49.872;6.190;2022-08-25T09:07:54;99412.86;;;42.91;16.24
63447;BME280;49577;49.872;6.190;2022-08-25T09:10:22;99410.64;;;43.08;16.14
63447;BME280;49577;49.872;6.190;2022-08-25T09:13:23;99408.32;;;43.23;15.83
63447;BME280;49577;49.872;6.190;2022-08-25T09:16:12;99410.85;;;43.59;15.78
63447;BME280;49577;49.872;6.190;2022-08-25T09:30:57;99401.47;;;43.00;15.75
63447;BME280;49577;49.872;6.190;2022-08-25T09:33:25;99398.85;;;42.97;16.02
63447;BME280;49577;49.872;6.190;2022-08-25T09:35:54;99398.94;;;42.92;16.06
63447;BME280;49577;49.872;6.190;2022-08-25T09:38:20;99396.77;;;43.13;15.79
63447;BME280;49577;49.872;6.190;2022-08-25T09:40:53;99393.31;;;43.56;15.39
63447;BME280;49577;49.872;6.190;2022-08-25T09:43:39;99398.54;;;43.46;15.27
63447;BME280;49577;49.872;6.190;2022-08-25T09:46:15;99397.27;;;43.21;15.56
63447;BME280;49577;49.872;6.190;2022-08-25T09:51:28;99391.67;;;43.04;15.53
63447;BME280;49577;49.872;6.190;2022-08-25T10:01:48;99376.60;;;42.25;16.19
63447;BME280;49577;49.872;6.190;2022-08-25T10:04:13;99372.70;;;42.48;15.78
63447;BME280;49577;49.872;6.190;2022-08-25T10:06:44;99361.20;;;42.47;15.66
63447;BME280;49577;49.872;6.190;2022-08-25T10:09:24;99363.70;;;42.67;15.53
63447;BME280;49577;49.872;6.190;2022-08-25T10:11:51;99367.08;;;42.71;15.67
63447;BME280;49577;49.872;6.190;2022-08-25T10:16:51;99352.89;;;42.60;15.68
63447;BME280;49577;49.872;6.190;2022-08-25T10:19:25;99344.73;;;42.32;15.52
63447;BME280;49577;49.872;6.190;2022-08-25T10:22:05;99340.89;;;42.12;15.71
63447;BME280;49577;49.872;6.190;2022-08-25T10:24:32;99342.32;;;42.56;15.27
63447;BME280;49577;49.872;6.190;2022-08-25T10:33:25;99329.38;;;43.01;14.89
63447;BME280;49577;49.872;6.190;2022-08-25T10:44:14;99318.24;;;43.19;14.92
63447;BME280;49577;49.872;6.190;2022-08-25T10:47:42;99312.27;;;43.63;14.66
63447;BME280;49577;49.872;6.190;2022-08-25T10:56:06;99304.08;;;44.26;14.21
63447;BME280;49577;49.872;6.190;2022-08-25T11:01:34;99295.65;;;43.78;14.47
63447;BME280;49577;49.872;6.190;2022-08-25T11:04:14;99292.52;;;44.01;14.42
63447;BME280;49577;49.872;6.190;2022-08-25T11:06:48;99282.30;;;43.64;14.07
63447;BME280;49577;49.872;6.190;2022-08-25T11:09:19;99280.59;;;43.28;14.35
63447;BME280;49577;49.872;6.190;2022-08-25T11:14:21;99282.07;;;43.69;13.96
63447;BME280;49577;49.872;6.190;2022-08-25T11:16:54;99276.15;;;44.00;13.38
63447;BME280;49577;49.872;6.190;2022-08-25T11:19:33;99272.85;;;43.97;13.26
63447;BME280;49577;49.872;6.190;2022-08-25T11:24:50;99272.48;;;43.80;13.61
63447;BME280;49577;49.872;6.190;2022-08-25T11:27:21;99261.99;;;44.10;13.38
63447;BME280;49577;49.872;6.190;2022-08-25T11:30:15;99254.09;;;44.27;13.45
63447;BME280;49577;49.872;6.190;2022-08-25T11:32:47;99247.67;;;44.27;13.17
63447;BME280;49577;49.872;6.190;2022-08-25T11:35:16;99236.60;;;44.34;13.15
63447;BME280;49577;49.872;6.190;2022-08-25T11:37:53;99231.56;;;44.70;13.15
63447;BME280;49577;49.872;6.190;2022-08-25T11:40:42;99230.92;;;44.77;12.95
63447;BME280;49577;49.872;6.190;2022-08-25T11:48:38;99239.30;;;44.35;12.68
63447;BME280;49577;49.872;6.190;2022-08-25T11:51:08;99235.65;;;43.90;13.07
63447;BME280;49577;49.872;6.190;2022-08-25T11:53:35;99228.25;;;43.73;12.93
63447;BME280;49577;49.872;6.190;2022-08-25T11:56:07;99231.09;;;43.39;13.02
63447;BME280;49577;49.872;6.190;2022-08-25T11:58:49;99232.10;;;43.01;13.18
63447;BME280;49577;49.872;6.190;2022-08-25T12:04:31;99222.03;;;41.96;14.28
63447;BME280;49577;49.872;6.190;2022-08-25T12:18:17;99219.41;;;39.33;16.24
63447;BME280;49577;49.872;6.190;2022-08-25T12:23:44;99211.52;;;38.41;16.96
63447;BME280;49577;49.872;6.190;2022-08-25T12:37:21;99204.50;;;37.57;17.17
63447;BME280;49577;49.872;6.190;2022-08-25T12:47:44;99200.39;;;36.80;18.13
63447;BME280;49577;49.872;6.190;2022-08-25T12:50:29;99194.50;;;36.64;18.04
63447;BME280;49577;49.872;6.190;2022-08-25T12:53:14;99190.87;;;36.54;18.32
63447;BME280;49577;49.872;6.190;2022-08-25T12:55:51;99184.15;;;36.49;18.35
63447;BME280;49577;49.872;6.190;2022-08-25T12:58:21;99180.99;;;36.36;18.42
63447;BME280;49577;49.872;6.190;2022-08-25T13:01:09;99181.31;;;36.38;18.49
63447;BME280;49577;49.872;6.190;2022-08-25T13:06:34;99174.55;;;36.47;18.77
63447;BME280;49577;49.872;6.190;2022-08-25T13:14:43;99162.34;;;36.45;18.87
63447;BME280;49577;49.872;6.190;2022-08-25T13:17:10;99159.93;;;36.35;19.03
63447;BME280;49577;49.872;6.190;2022-08-25T13:19:36;99160.45;;;36.29;18.92
63447;BME280;49577;49.872;6.190;2022-08-25T13:22:11;99154.65;;;36.38;18.85
63447;BME280;49577;49.872;6.190;2022-08-25T13:24:41;99155.30;;;36.42;18.70
63447;BME280;49577;49.872;6.190;2022-08-25T13:27:18;99149.73;;;36.35;18.96
63447;BME280;49577;49.872;6.190;2022-08-25T13:29:53;99145.06;;;36.30;18.96
63447;BME280;49577;49.872;6.190;2022-08-25T13:32:28;99138.93;;;36.01;19.12
63447;BME280;49577;49.872;6.190;2022-08-25T13:35:17;99140.83;;;35.72;19.64
63447;BME280;49577;49.872;6.190;2022-08-25T13:37:43;99141.70;;;35.68;19.78
63447;BME280;49577;49.872;6.190;2022-08-25T13:42:51;99144.27;;;35.23;19.64
63447;BME280;49577;49.872;6.190;2022-08-25T13:45:20;99142.56;;;35.15;19.89
63447;BME280;49577;49.872;6.190;2022-08-25T13:47:47;99133.23;;;35.04;19.62
63447;BME280;49577;49.872;6.190;2022-08-25T13:52:58;99138.98;;;34.55;20.12
63447;BME280;49577;49.872;6.190;2022-08-25T13:55:33;99138.48;;;34.54;19.88
63447;BME280;49577;49.872;6.190;2022-08-25T13:58:00;99128.98;;;34.57;19.92
63447;BME280;49577;49.872;6.190;2022-08-25T14:00:28;99125.36;;;34.60;19.71
63447;BME280;49577;49.872;6.190;2022-08-25T14:02:56;99127.14;;;34.68;19.59
63447;BME280;49577;49.872;6.190;2022-08-25T14:05:35;99125.84;;;34.73;19.26
63447;BME280;49577;49.872;6.190;2022-08-25T14:08:02;99124.45;;;34.64;19.17
63447;BME280;49577;49.872;6.190;2022-08-25T14:10:43;99120.64;;;34.64;19.49
63447;BME280;49577;49.872;6.190;2022-08-25T14:13:15;99112.86;;;34.79;20.15
63447;BME280;49577;49.872;6.190;2022-08-25T14:15:43;99113.33;;;34.88;19.64
63447;BME280;49577;49.872;6.190;2022-08-25T14:18:21;99113.77;;;34.85;19.44
63447;BME280;49577;49.872;6.190;2022-08-25T14:20:53;99110.42;;;34.84;19.86
63447;BME280;49577;49.872;6.190;2022-08-25T14:23:27;99113.70;;;34.83;19.84
63447;BME280;49577;49.872;6.190;2022-08-25T14:25:54;99112.46;;;34.76;19.26
63447;BME280;49577;49.872;6.190;2022-08-25T14:28:25;99109.23;;;34.69;19.53
63447;BME280;49577;49.872;6.190;2022-08-25T14:31:00;99105.17;;;34.74;19.87
63447;BME280;49577;49.872;6.190;2022-08-25T14:33:33;99105.33;;;34.70;19.60
63447;BME280;49577;49.872;6.190;2022-08-25T14:36:00;99100.30;;;34.55;19.67
63447;BME280;49577;49.872;6.190;2022-08-25T14:38:30;99103.60;;;34.34;19.97
63447;BME280;49577;49.872;6.190;2022-08-25T14:40:55;99103.94;;;34.10;19.97
63447;BME280;49577;49.872;6.190;2022-08-25T14:43:21;99103.77;;;34.01;20.03
63447;BME280;49577;49.872;6.190;2022-08-25T14:45:46;99101.29;;;33.96;20.16
63447;BME280;49577;49.872;6.190;2022-08-25T14:48:24;99100.88;;;34.00;20.20
63447;BME280;49577;49.872;6.190;2022-08-25T14:50:52;99097.14;;;34.00;20.05
63447;BME280;49577;49.872;6.190;2022-08-25T14:53:18;99093.79;;;34.04;20.03
63447;BME280;49577;49.872;6.190;2022-08-25T14:55:44;99099.85;;;34.00;19.97
63447;BME280;49577;49.872;6.190;2022-08-25T14:58:09;99100.31;;;33.98;20.11
63447;BME280;49577;49.872;6.190;2022-08-25T15:00:40;99097.29;;;33.93;20.25
63447;BME280;49577;49.872;6.190;2022-08-25T15:03:06;99095.63;;;33.90;20.56
63447;BME280;49577;49.872;6.190;2022-08-25T15:05:31;99090.04;;;33.92;20.71
63447;BME280;49577;49.872;6.190;2022-08-25T15:07:56;99095.20;;;33.95;21.01
63447;BME280;49577;49.872;6.190;2022-08-25T15:10:40;99086.73;;;33.92;20.89
63447;BME280;49577;49.872;6.190;2022-08-25T15:13:06;99084.92;;;33.83;21.01
63447;BME280;49577;49.872;6.190;2022-08-25T15:15:35;99080.00;;;33.77;21.17
63447;BME280;49577;49.872;6.190;2022-08-25T15:18:02;99082.08;;;33.72;21.23